Time;durP1;ratioP1;P1;durP2;ratioP2;P2;SDS_P1;SDS_P2;PMS_P1;PMS_P2;Temp;Humidity;BMP_temperature;BMP_pressure;BME280_temperature;BME280_humidity;BME280_pressure;Samples;Min_cycle;Max_cycle;Signal;HPM_P1;HPM_P2
2022/04/08 00:00:16;;;;;;;;;;;18.40;37.10;;;;;;8366734;28;19925;-49
2022/04/08 00:04:16;;;;;;;;;;;18.40;37.20;;;;;;8366899;28;19917;-49
2022/04/08 00:08:16;;;;;;;;;;;18.40;37.20;;;;;;8366492;28;20274;-50
2022/04/08 00:12:17;;;;;;;;;;;18.40;37.30;;;;;;8366701;28;19917;-48
2022/04/08 00:16:18;;;;;;;;;;;18.40;37.10;;;;;;8366849;28;19917;-50
2022/04/08 00:20:19;;;;;;;;;;;18.40;37.40;;;;;;8366198;28;19947;-50
2022/04/08 00:24:19;;;;;;;;;;;18.40;37.20;;;;;;8366555;28;19917;-49
2022/04/08 00:28:20;;;;;;;;;;;18.40;37.20;;;;;;8365933;28;19942;-48
2022/04/08 00:32:20;;;;;;;;;;;18.40;37.20;;;;;;8365620;28;19912;-52
2022/04/08 00:36:21;;;;;;;;;;;18.40;37.30;;;;;;8365936;28;19917;-48
2022/04/08 00:40:22;;;;;;;;;;;18.40;37.20;;;;;;8366192;28;20472;-50
2022/04/08 00:44:22;;;;;;;;;;;18.40;37.20;;;;;;8365436;28;19924;-49
2022/04/08 00:48:23;;;;;;;;;;;18.40;37.20;;;;;;8365650;28;19929;-48
2022/04/08 00:52:23;;;;;;;;;;;18.40;37.20;;;;;;8365326;28;19922;-50
2022/04/08 00:56:24;;;;;;;;;;;18.40;37.30;;;;;;8364972;28;19920;-50
2022/04/08 01:00:25;;;;;;;;;;;18.30;37.20;;;;;;8365702;28;19925;-50
2022/04/08 01:04:27;;;;;;;;;;;18.40;37.20;;;;;;8365085;28;19924;-51
2022/04/08 01:08:28;;;;;;;;;;;18.40;37.20;;;;;;8363393;28;19913;-48
2022/04/08 01:12:28;;;;;;;;;;;18.30;37.20;;;;;;8364872;28;19917;-51
2022/04/08 01:16:29;;;;;;;;;;;18.30;37.20;;;;;;8364854;28;19920;-49
2022/04/08 01:20:29;;;;;;;;;;;18.30;37.20;;;;;;8364417;28;19940;-49
2022/04/08 01:24:34;;;;;;;;;;;18.30;37.10;;;;;;8364711;28;20092;-49
2022/04/08 01:28:35;;;;;;;;;;;18.30;37.10;;;;;;8364708;28;19926;-49
2022/04/08 01:32:35;;;;;;;;;;;18.30;37.20;;;;;;8363806;28;19913;-50
2022/04/08 01:36:37;;;;;;;;;;;18.30;37.20;;;;;;8364147;28;19913;-50
2022/04/08 01:40:37;;;;;;;;;;;18.30;37.20;;;;;;8363579;28;20424;-49
2022/04/08 01:44:38;;;;;;;;;;;18.30;37.20;;;;;;8363519;28;19929;-48
2022/04/08 01:48:38;;;;;;;;;;;18.30;37.30;;;;;;8363737;28;19962;-51
2022/04/08 01:52:39;;;;;;;;;;;18.30;37.20;;;;;;8363668;28;20320;-50
2022/04/08 01:56:39;;;;;;;;;;;18.30;37.20;;;;;;8363113;28;19948;-50
2022/04/08 02:00:40;;;;;;;;;;;18.30;37.20;;;;;;8363519;28;19925;-53
2022/04/08 02:04:40;;;;;;;;;;;18.30;37.30;;;;;;8363724;28;20320;-49
2022/04/08 02:08:41;;;;;;;;;;;18.30;37.20;;;;;;8362789;28;20290;-53
2022/04/08 02:12:42;;;;;;;;;;;18.30;37.20;;;;;;8363434;28;20272;-53
2022/04/08 02:16:42;;;;;;;;;;;18.30;37.30;;;;;;8363458;28;19924;-54
2022/04/08 02:20:43;;;;;;;;;;;18.30;37.20;;;;;;8362835;28;20314;-52
2022/04/08 02:24:43;;;;;;;;;;;18.20;37.30;;;;;;8361422;28;19921;-51
2022/04/08 02:28:44;;;;;;;;;;;18.30;37.30;;;;;;8361585;28;19944;-52
2022/04/08 02:32:46;;;;;;;;;;;18.30;37.30;;;;;;8362421;28;19924;-50
2022/04/08 02:36:46;;;;;;;;;;;18.20;37.30;;;;;;8362963;28;19940;-50
2022/04/08 02:40:47;;;;;;;;;;;18.20;37.30;;;;;;8362895;28;19932;-54
2022/04/08 02:44:47;;;;;;;;;;;18.20;37.30;;;;;;8362317;28;19924;-52
2022/04/08 02:48:47;;;;;;;;;;;18.20;37.30;;;;;;8374855;28;19951;-50
2022/04/08 02:52:48;;;;;;;;;;;18.30;37.30;;;;;;8382562;28;19920;-50
2022/04/08 02:56:48;;;;;;;;;;;18.20;37.30;;;;;;8335656;28;19924;-53
2022/04/08 03:00:49;;;;;;;;;;;18.20;37.30;;;;;;8336508;28;19925;-50
2022/04/08 03:04:50;;;;;;;;;;;18.20;37.30;;;;;;8336166;28;19949;-53
2022/04/08 03:08:50;;;;;;;;;;;18.20;37.20;;;;;;8335291;28;19917;-49
2022/04/08 03:12:51;;;;;;;;;;;18.20;37.20;;;;;;8335645;28;20294;-51
2022/04/08 03:16:51;;;;;;;;;;;18.20;37.20;;;;;;8335636;28;19917;-50
2022/04/08 03:20:51;;;;;;;;;;;18.20;37.20;;;;;;8335071;28;19925;-52
2022/04/08 03:24:52;;;;;;;;;;;18.20;37.30;;;;;;8335568;28;19917;-53
2022/04/08 03:28:52;;;;;;;;;;;18.20;37.80;;;;;;8335219;28;20370;-51
2022/04/08 03:32:56;;;;;;;;;;;18.20;37.30;;;;;;8334509;28;19975;-52
2022/04/08 03:36:56;;;;;;;;;;;18.20;37.30;;;;;;8335177;28;20286;-54
2022/04/08 03:40:57;;;;;;;;;;;18.20;37.30;;;;;;8334924;28;20015;-53
2022/04/08 03:44:57;;;;;;;;;;;18.20;37.30;;;;;;8334267;28;19917;-50
2022/04/08 03:48:58;;;;;;;;;;;18.20;37.30;;;;;;8334549;28;19925;-53
2022/04/08 03:52:59;;;;;;;;;;;18.20;37.30;;;;;;8334504;28;19924;-52
2022/04/08 03:56:59;;;;;;;;;;;18.20;37.30;;;;;;8333990;28;19921;-50
2022/04/08 04:00:59;;;;;;;;;;;18.20;37.30;;;;;;8333625;28;19929;-53
2022/04/08 04:05:00;;;;;;;;;;;18.20;37.30;;;;;;8334242;28;20008;-49
2022/04/08 04:09:01;;;;;;;;;;;18.20;37.30;;;;;;8333246;28;19917;-49
2022/04/08 04:13:01;;;;;;;;;;;18.20;37.30;;;;;;8333747;28;19920;-50
2022/04/08 04:17:02;;;;;;;;;;;18.20;37.90;;;;;;8333996;28;19925;-50
2022/04/08 04:21:03;;;;;;;;;;;18.20;37.30;;;;;;8333134;28;19953;-52
2022/04/08 04:25:04;;;;;;;;;;;18.20;37.30;;;;;;8333526;28;20435;-51
2022/04/08 04:29:05;;;;;;;;;;;18.20;37.30;;;;;;8333434;28;19913;-49
2022/04/08 04:33:08;;;;;;;;;;;18.20;37.30;;;;;;8332745;28;20371;-50
2022/04/08 04:37:11;;;;;;;;;;;18.20;37.30;;;;;;8333248;28;20008;-50
2022/04/08 04:41:11;;;;;;;;;;;18.20;37.30;;;;;;8332878;28;20438;-50
2022/04/08 04:45:13;;;;;;;;;;;18.20;37.30;;;;;;8332454;28;19917;-50
2022/04/08 04:49:14;;;;;;;;;;;18.20;37.30;;;;;;8332982;28;19913;-50
2022/04/08 04:53:14;;;;;;;;;;;18.20;37.30;;;;;;8332683;28;19917;-50
2022/04/08 04:57:15;;;;;;;;;;;18.20;37.30;;;;;;8332203;28;19956;-52
2022/04/08 05:01:16;;;;;;;;;;;18.20;37.30;;;;;;8332607;28;19949;-53
2022/04/08 05:05:16;;;;;;;;;;;18.20;37.30;;;;;;8332206;28;20285;-50
2022/04/08 05:09:17;;;;;;;;;;;18.20;37.30;;;;;;8332237;28;19955;-49
2022/04/08 05:13:18;;;;;;;;;;;18.20;37.30;;;;;;8331996;28;19913;-50
2022/04/08 05:17:19;;;;;;;;;;;18.20;37.30;;;;;;8331586;28;19943;-51
2022/04/08 05:21:19;;;;;;;;;;;18.20;37.30;;;;;;8331544;28;20389;-52
2022/04/08 05:25:20;;;;;;;;;;;18.20;37.30;;;;;;8331578;28;20399;-51
2022/04/08 05:29:21;;;;;;;;;;;18.20;37.30;;;;;;8331069;28;19913;-49
2022/04/08 05:33:21;;;;;;;;;;;18.20;37.30;;;;;;8331537;28;20390;-55
2022/04/08 05:37:21;;;;;;;;;;;18.30;37.30;;;;;;8331463;28;19921;-53
2022/04/08 05:41:22;;;;;;;;;;;18.20;37.30;;;;;;8330541;28;19929;-52
2022/04/08 05:45:23;;;;;;;;;;;18.20;37.30;;;;;;8330989;28;19975;-50
2022/04/08 05:49:23;;;;;;;;;;;18.20;37.30;;;;;;8331130;28;20075;-53
2022/04/08 05:53:26;;;;;;;;;;;18.20;37.30;;;;;;8330320;28;20019;-52
2022/04/08 05:57:26;;;;;;;;;;;18.20;37.30;;;;;;8330739;28;19921;-52
2022/04/08 06:01:27;;;;;;;;;;;18.20;37.40;;;;;;8330375;28;20023;-55
2022/04/08 06:05:27;;;;;;;;;;;18.20;37.30;;;;;;8329925;28;19925;-55
2022/04/08 06:09:28;;;;;;;;;;;18.20;37.30;;;;;;8330328;28;19989;-50
2022/04/08 06:13:28;;;;;;;;;;;18.20;37.40;;;;;;8330262;28;20012;-51
2022/04/08 06:17:38;;;;;;;;;;;18.20;37.40;;;;;;8329871;28;19913;-51
2022/04/08 06:21:39;;;;;;;;;;;18.20;37.40;;;;;;8330362;28;19961;-51
2022/04/08 06:25:39;;;;;;;;;;;18.20;37.30;;;;;;8329346;28;19917;-51
2022/04/08 06:29:39;;;;;;;;;;;18.20;37.40;;;;;;8329326;28;19960;-50
2022/04/08 06:33:41;;;;;;;;;;;18.20;37.40;;;;;;8330041;28;20063;-52
2022/04/08 06:37:42;;;;;;;;;;;18.20;37.40;;;;;;8330097;28;19952;-50
2022/04/08 06:41:44;;;;;;;;;;;18.20;37.40;;;;;;8329059;28;19925;-50
2022/04/08 06:45:44;;;;;;;;;;;18.20;37.40;;;;;;8329514;28;19921;-49
2022/04/08 06:49:46;;;;;;;;;;;18.20;37.40;;;;;;8329864;28;19940;-52
2022/04/08 06:53:47;;;;;;;;;;;18.20;37.40;;;;;;8329226;28;19952;-50
2022/04/08 06:57:48;;;;;;;;;;;18.20;37.40;;;;;;8329882;28;19928;-52
2022/04/08 07:01:48;;;;;;;;;;;18.30;37.40;;;;;;8329471;28;20344;-49
2022/04/08 07:05:49;;;;;;;;;;;18.20;37.40;;;;;;8328975;28;19917;-52
2022/04/08 07:09:51;;;;;;;;;;;18.30;37.40;;;;;;8329551;28;19917;-49
2022/04/08 07:13:51;;;;;;;;;;;18.30;37.40;;;;;;8329068;28;20015;-48
2022/04/08 07:17:52;;;;;;;;;;;18.20;37.40;;;;;;8329225;28;19913;-53
2022/04/08 07:21:52;;;;;;;;;;;18.30;37.40;;;;;;8329220;28;19926;-50
2022/04/08 07:25:53;;;;;;;;;;;18.30;37.40;;;;;;8329656;28;19917;-52
2022/04/08 07:29:53;;;;;;;;;;;18.30;37.40;;;;;;8328928;28;19917;-49
2022/04/08 07:33:53;;;;;;;;;;;18.30;37.40;;;;;;8329429;28;19951;-48
2022/04/08 07:37:54;;;;;;;;;;;18.30;37.40;;;;;;8333060;28;19928;-52
2022/04/08 07:41:54;;;;;;;;;;;18.30;37.40;;;;;;8334374;28;19932;-50
2022/04/08 07:45:55;;;;;;;;;;;18.30;37.40;;;;;;8334711;28;19917;-50
2022/04/08 07:49:56;;;;;;;;;;;18.30;37.40;;;;;;8334804;28;19917;-53
2022/04/08 07:53:57;;;;;;;;;;;18.30;37.40;;;;;;8333879;28;20950;-49
2022/04/08 07:57:57;;;;;;;;;;;18.30;37.40;;;;;;8334392;28;19975;-54
2022/04/08 08:01:58;;;;;;;;;;;18.30;37.40;;;;;;8334239;28;19925;-52
2022/04/08 08:05:58;;;;;;;;;;;18.30;37.40;;;;;;8333520;28;20008;-50
2022/04/08 08:09:59;;;;;;;;;;;18.30;37.40;;;;;;8333989;28;19917;-53
2022/04/08 08:13:59;;;;;;;;;;;18.30;37.50;;;;;;8333915;28;20337;-52
2022/04/08 08:18:00;;;;;;;;;;;18.30;37.40;;;;;;8333453;28;19917;-54
2022/04/08 08:22:00;;;;;;;;;;;18.30;37.40;;;;;;8333582;28;19929;-52
2022/04/08 08:26:01;;;;;;;;;;;18.30;37.40;;;;;;8333546;28;19972;-49
2022/04/08 08:30:02;;;;;;;;;;;18.30;37.40;;;;;;8315137;28;19923;-53
2022/04/08 08:34:02;;;;;;;;;;;18.30;37.50;;;;;;8333673;28;19913;-50
2022/04/08 08:38:03;;;;;;;;;;;18.30;37.50;;;;;;8333211;28;19927;-52
2022/04/08 08:42:05;;;;;;;;;;;18.30;37.50;;;;;;8332453;28;19925;-51
2022/04/08 08:46:07;;;;;;;;;;;18.30;37.40;;;;;;8350354;28;19916;-49
2022/04/08 08:50:07;;;;;;;;;;;18.30;37.50;;;;;;8365256;28;19916;-51
2022/04/08 08:54:08;;;;;;;;;;;18.30;37.50;;;;;;8365010;28;20343;-52
2022/04/08 08:58:08;;;;;;;;;;;18.30;37.50;;;;;;8365360;28;19928;-53
2022/04/08 09:02:09;;;;;;;;;;;18.30;37.50;;;;;;8365337;28;20011;-50
2022/04/08 09:06:09;;;;;;;;;;;18.30;37.50;;;;;;8364271;28;19999;-50
2022/04/08 09:10:10;;;;;;;;;;;18.40;37.60;;;;;;8365073;28;19924;-54
2022/04/08 09:14:10;;;;;;;;;;;18.30;37.50;;;;;;8364769;28;19919;-50
2022/04/08 09:18:12;;;;;;;;;;;18.40;37.60;;;;;;8364512;28;19913;-51
2022/04/08 09:22:13;;;;;;;;;;;18.30;37.50;;;;;;8364536;28;19928;-53
2022/04/08 09:26:14;;;;;;;;;;;18.30;37.50;;;;;;8364539;28;19970;-49
2022/04/08 09:30:18;;;;;;;;;;;18.40;37.60;;;;;;8363950;28;19920;-52
2022/04/08 09:34:20;;;;;;;;;;;18.40;37.60;;;;;;8364818;28;19919;-50
2022/04/08 09:38:21;;;;;;;;;;;18.40;37.60;;;;;;8364128;28;20263;-54
2022/04/08 09:42:22;;;;;;;;;;;18.40;37.60;;;;;;8364054;28;19928;-53
2022/04/08 09:46:23;;;;;;;;;;;18.40;37.60;;;;;;8363997;28;20015;-53
2022/04/08 09:50:24;;;;;;;;;;;18.40;37.60;;;;;;8363380;28;20396;-54
2022/04/08 09:54:27;;;;;;;;;;;18.40;37.60;;;;;;8364300;28;20354;-53
2022/04/08 09:58:29;;;;;;;;;;;18.40;37.60;;;;;;8362985;28;19952;-51
2022/04/08 10:02:32;;;;;;;;;;;18.40;37.60;;;;;;8363101;28;20066;-49
2022/04/08 10:06:32;;;;;;;;;;;18.40;37.60;;;;;;8331341;28;20019;-53
2022/04/08 10:10:55;;;;;;;;;;;18.40;37.60;;;;;;8330693;28;19917;-52
2022/04/08 10:14:56;;;;;;;;;;;18.40;37.60;;;;;;8329233;28;19917;-49
2022/04/08 10:19:04;;;;;;;;;;;18.40;37.60;;;;;;8330727;28;19996;-52
2022/04/08 10:23:11;;;;;;;;;;;18.40;37.60;;;;;;8330305;28;20349;-51
2022/04/08 10:27:13;;;;;;;;;;;18.40;37.70;;;;;;8329652;28;19917;-53
2022/04/08 10:31:15;;;;;;;;;;;18.40;37.60;;;;;;8330413;28;19917;-51
2022/04/08 10:35:19;;;;;;;;;;;18.50;37.70;;;;;;8330172;28;19921;-54
2022/04/08 10:39:19;;;;;;;;;;;18.50;37.70;;;;;;8330308;28;19928;-53
2022/04/08 10:43:20;;;;;;;;;;;18.40;37.70;;;;;;8329848;28;19932;-50
2022/04/08 10:47:21;;;;;;;;;;;18.50;37.80;;;;;;8329437;28;19917;-52
2022/04/08 10:51:22;;;;;;;;;;;18.50;37.70;;;;;;8330165;28;20358;-52
2022/04/08 10:55:22;;;;;;;;;;;18.50;37.80;;;;;;8330095;28;19921;-51
2022/04/08 10:59:26;;;;;;;;;;;18.50;37.80;;;;;;8329403;28;20381;-50
2022/04/08 11:03:28;;;;;;;;;;;18.50;37.80;;;;;;8329408;28;19925;-54
2022/04/08 11:07:30;;;;;;;;;;;18.50;37.80;;;;;;8329637;28;19924;-50
2022/04/08 11:11:31;;;;;;;;;;;18.50;37.80;;;;;;8332420;28;19996;-52
2022/04/08 11:15:32;;;;;;;;;;;18.50;37.90;;;;;;8335775;28;19947;-52
2022/04/08 11:19:32;;;;;;;;;;;18.50;37.90;;;;;;8336153;28;19955;-50
2022/04/08 11:23:33;;;;;;;;;;;18.50;37.90;;;;;;8335138;28;19932;-51
2022/04/08 11:27:33;;;;;;;;;;;18.50;37.90;;;;;;8335346;28;19917;-54
2022/04/08 11:31:34;;;;;;;;;;;18.50;37.90;;;;;;8335145;28;19921;-51
2022/04/08 11:35:34;;;;;;;;;;;18.50;38.00;;;;;;8334732;28;20034;-52
2022/04/08 11:39:35;;;;;;;;;;;18.50;38.00;;;;;;8335566;28;20357;-50
2022/04/08 11:43:35;;;;;;;;;;;18.60;38.10;;;;;;8335021;28;19925;-51
2022/04/08 11:47:40;;;;;;;;;;;18.60;38.20;;;;;;8334367;28;19917;-53
2022/04/08 11:51:40;;;;;;;;;;;18.60;38.20;;;;;;8334919;28;19925;-53
2022/04/08 11:55:51;;;;;;;;;;;18.60;38.30;;;;;;8334406;28;19917;-52
2022/04/08 11:59:51;;;;;;;;;;;18.50;38.30;;;;;;8334063;28;19979;-50
2022/04/08 12:03:52;;;;;;;;;;;18.60;38.30;;;;;;8334373;28;19932;-49
2022/04/08 12:07:54;;;;;;;;;;;18.60;38.30;;;;;;8334264;28;20329;-49
2022/04/08 12:11:56;;;;;;;;;;;18.60;38.40;;;;;;8333415;28;19921;-54
2022/04/08 12:15:57;;;;;;;;;;;18.60;38.40;;;;;;8333859;28;19919;-51
2022/04/08 12:19:58;;;;;;;;;;;18.60;38.40;;;;;;8333834;28;19924;-49
2022/04/08 12:23:59;;;;;;;;;;;18.60;38.40;;;;;;8332404;28;19979;-49
2022/04/08 12:28:00;;;;;;;;;;;18.60;38.40;;;;;;8333533;28;20063;-49
2022/04/08 12:32:01;;;;;;;;;;;18.60;38.40;;;;;;8333518;28;19917;-50
2022/04/08 12:36:02;;;;;;;;;;;18.60;38.40;;;;;;8332663;28;19924;-51
2022/04/08 12:40:03;;;;;;;;;;;18.60;38.40;;;;;;8333570;28;19913;-51
2022/04/08 12:44:04;;;;;;;;;;;18.60;38.40;;;;;;8357176;28;20023;-50
2022/04/08 12:48:05;;;;;;;;;;;18.60;38.60;;;;;;8356909;28;19920;-53
2022/04/08 12:52:06;;;;;;;;;;;18.60;38.50;;;;;;8332913;28;20254;-52
2022/04/08 12:56:06;;;;;;;;;;;18.60;38.50;;;;;;8332483;28;19917;-52
2022/04/08 13:00:11;;;;;;;;;;;18.60;38.60;;;;;;8332444;28;20262;-51
2022/04/08 13:04:12;;;;;;;;;;;18.60;38.60;;;;;;8332554;28;20370;-50
2022/04/08 13:08:12;;;;;;;;;;;18.60;38.60;;;;;;8333729;28;19913;-50
2022/04/08 13:12:13;;;;;;;;;;;18.60;38.70;;;;;;8360429;28;20393;-49
2022/04/08 13:16:13;;;;;;;;;;;18.60;38.70;;;;;;8345540;28;19961;-48
2022/04/08 13:20:14;;;;;;;;;;;18.60;38.80;;;;;;8338373;28;19921;-50
2022/04/08 13:24:16;;;;;;;;;;;18.60;38.70;;;;;;8333356;28;19986;-50
2022/04/08 13:28:17;;;;;;;;;;;18.60;38.70;;;;;;8331573;28;19917;-50
2022/04/08 13:32:18;;;;;;;;;;;18.60;38.80;;;;;;8352181;28;20360;-51
2022/04/08 13:36:18;;;;;;;;;;;18.60;38.80;;;;;;8357634;28;20398;-52
2022/04/08 13:40:19;;;;;;;;;;;18.60;38.80;;;;;;8349102;28;19925;-50
2022/04/08 13:44:21;;;;;;;;;;;18.60;38.80;;;;;;8340588;28;20035;-50
2022/04/08 13:48:21;;;;;;;;;;;18.60;38.80;;;;;;8357160;28;19921;-53
2022/04/08 13:52:22;;;;;;;;;;;18.60;38.80;;;;;;8350386;28;19963;-54
2022/04/08 13:56:22;;;;;;;;;;;18.60;38.80;;;;;;8340766;28;19928;-53
2022/04/08 14:00:23;;;;;;;;;;;18.60;38.80;;;;;;8350536;28;19921;-51
2022/04/08 14:04:23;;;;;;;;;;;18.60;38.90;;;;;;8330026;28;19917;-50
2022/04/08 14:08:25;;;;;;;;;;;18.60;38.80;;;;;;8339540;28;21248;-50
2022/04/08 14:12:26;;;;;;;;;;;18.60;38.90;;;;;;8332849;28;20374;-53
2022/04/08 14:16:27;;;;;;;;;;;18.60;38.90;;;;;;8331841;28;19917;-49
2022/04/08 14:20:28;;;;;;;;;;;18.60;38.90;;;;;;8348216;28;19924;-55
2022/04/08 14:24:28;;;;;;;;;;;18.60;38.90;;;;;;8348979;28;19925;-53
2022/04/08 14:28:29;;;;;;;;;;;18.60;38.90;;;;;;8343206;28;20313;-51
2022/04/08 14:32:29;;;;;;;;;;;18.60;39.00;;;;;;8329249;28;20361;-52
2022/04/08 14:36:29;;;;;;;;;;;18.60;39.00;;;;;;8330303;28;20381;-54
2022/04/08 14:40:30;;;;;;;;;;;18.60;39.10;;;;;;8343898;28;19982;-51
2022/04/08 14:44:31;;;;;;;;;;;18.60;39.00;;;;;;8362570;28;20242;-50
2022/04/08 14:48:31;;;;;;;;;;;18.60;39.00;;;;;;8369758;28;19924;-49
2022/04/08 14:52:31;;;;;;;;;;;18.60;39.10;;;;;;8351498;28;19978;-53
2022/04/08 14:56:32;;;;;;;;;;;18.70;39.10;;;;;;8368874;28;19918;-53
2022/04/08 15:00:32;;;;;;;;;;;18.70;39.10;;;;;;8369400;28;19967;-53
2022/04/08 15:04:33;;;;;;;;;;;18.70;39.20;;;;;;8369071;28;19939;-53
2022/04/08 15:08:33;;;;;;;;;;;18.60;39.10;;;;;;8368311;28;20278;-52
2022/04/08 15:12:34;;;;;;;;;;;18.60;39.10;;;;;;8368747;28;19917;-53
2022/04/08 15:16:34;;;;;;;;;;;18.60;39.20;;;;;;8368966;28;19916;-49
2022/04/08 15:20:35;;;;;;;;;;;18.70;39.10;;;;;;8368048;28;19951;-52
2022/04/08 15:24:36;;;;;;;;;;;18.70;39.20;;;;;;8368463;28;20313;-54
2022/04/08 15:28:36;;;;;;;;;;;18.70;39.30;;;;;;8368330;28;20003;-49
2022/04/08 15:32:37;;;;;;;;;;;18.70;39.20;;;;;;8367585;28;19933;-49
2022/04/08 15:36:37;;;;;;;;;;;18.70;39.30;;;;;;8368553;28;19923;-50
2022/04/08 15:40:38;;;;;;;;;;;18.70;39.30;;;;;;8367603;28;20424;-49
2022/04/08 15:44:38;;;;;;;;;;;18.70;39.20;;;;;;8367441;28;20332;-50
2022/04/08 15:48:39;;;;;;;;;;;18.70;39.20;;;;;;8367628;28;20290;-50
2022/04/08 15:52:39;;;;;;;;;;;18.70;39.20;;;;;;8367569;28;20271;-52
2022/04/08 15:56:40;;;;;;;;;;;18.70;39.20;;;;;;8365905;28;20308;-51
2022/04/08 16:00:40;;;;;;;;;;;18.70;39.20;;;;;;8367205;28;19925;-51
2022/04/08 16:04:41;;;;;;;;;;;18.70;39.20;;;;;;8366244;28;19917;-54
2022/04/08 16:08:41;;;;;;;;;;;18.70;39.20;;;;;;8366649;28;20439;-50
2022/04/08 16:12:42;;;;;;;;;;;18.70;39.20;;;;;;8367148;28;19935;-50
2022/04/08 16:16:42;;;;;;;;;;;18.70;39.20;;;;;;8367276;28;19917;-51
2022/04/08 16:20:42;;;;;;;;;;;18.70;39.80;;;;;;8359692;28;20441;-53
2022/04/08 16:24:43;;;;;;;;;;;18.70;39.30;;;;;;8366380;28;19917;-53
2022/04/08 16:28:44;;;;;;;;;;;18.70;39.30;;;;;;8366430;28;19913;-51
2022/04/08 16:32:44;;;;;;;;;;;18.70;39.30;;;;;;8365916;28;19957;-50
2022/04/08 16:36:44;;;;;;;;;;;18.70;39.30;;;;;;8366336;28;19927;-54
2022/04/08 16:40:45;;;;;;;;;;;18.70;39.20;;;;;;8365759;28;20051;-51
2022/04/08 16:44:47;;;;;;;;;;;18.70;39.30;;;;;;8365390;28;19963;-50
2022/04/08 16:48:47;;;;;;;;;;;18.70;39.30;;;;;;8365672;28;20411;-50
2022/04/08 16:52:48;;;;;;;;;;;18.70;39.30;;;;;;8365593;28;19913;-50
2022/04/08 16:56:48;;;;;;;;;;;18.70;39.30;;;;;;8365227;28;19916;-51
2022/04/08 17:00:48;;;;;;;;;;;18.70;39.40;;;;;;8365516;28;20369;-50
2022/04/08 17:04:49;;;;;;;;;;;18.70;39.50;;;;;;8365362;28;20369;-51
2022/04/08 17:08:50;;;;;;;;;;;18.70;39.50;;;;;;8364371;28;19916;-54
2022/04/08 17:12:51;;;;;;;;;;;18.70;39.40;;;;;;8365073;28;19913;-51
2022/04/08 17:16:51;;;;;;;;;;;18.70;39.40;;;;;;8365342;28;20392;-53
2022/04/08 17:20:52;;;;;;;;;;;18.70;39.40;;;;;;8364063;28;19928;-52
2022/04/08 17:24:52;;;;;;;;;;;18.70;39.40;;;;;;8364693;28;19916;-50
2022/04/08 17:28:53;;;;;;;;;;;18.70;39.40;;;;;;8364348;28;19912;-52
2022/04/08 17:32:55;;;;;;;;;;;18.70;39.40;;;;;;8363974;28;19923;-52
2022/04/08 17:36:56;;;;;;;;;;;18.70;39.40;;;;;;8364759;28;19920;-53
2022/04/08 17:40:56;;;;;;;;;;;18.70;39.30;;;;;;8364234;28;19994;-50
2022/04/08 17:44:57;;;;;;;;;;;18.70;39.40;;;;;;8363748;28;20026;-51
2022/04/08 17:48:59;;;;;;;;;;;18.70;39.90;;;;;;8364479;28;19920;-52
2022/04/08 17:52:59;;;;;;;;;;;18.70;39.30;;;;;;8346243;28;19971;-52
2022/04/08 17:57:00;;;;;;;;;;;18.70;39.30;;;;;;8363567;28;20318;-53
2022/04/08 18:01:00;;;;;;;;;;;18.70;39.30;;;;;;8363944;28;19928;-52
2022/04/08 18:05:02;;;;;;;;;;;18.70;39.30;;;;;;8363647;28;20281;-52
2022/04/08 18:09:02;;;;;;;;;;;18.70;39.30;;;;;;8363075;28;20007;-52
2022/04/08 18:13:03;;;;;;;;;;;18.70;39.30;;;;;;8363496;28;20365;-52
2022/04/08 18:17:05;;;;;;;;;;;18.70;39.30;;;;;;8364086;28;19924;-52
2022/04/08 18:21:06;;;;;;;;;;;18.70;39.30;;;;;;8362094;28;19982;-51
2022/04/08 18:25:06;;;;;;;;;;;18.70;39.30;;;;;;8363435;28;19917;-50
2022/04/08 18:29:07;;;;;;;;;;;18.70;39.30;;;;;;8358321;28;19959;-51
2022/04/08 18:33:09;;;;;;;;;;;18.70;39.30;;;;;;8357960;28;19916;-52
2022/04/08 18:37:09;;;;;;;;;;;18.70;39.20;;;;;;8363403;28;19939;-52
2022/04/08 18:41:11;;;;;;;;;;;18.70;39.30;;;;;;8363079;28;19931;-50
2022/04/08 18:45:12;;;;;;;;;;;18.70;39.30;;;;;;8362276;28;19921;-50
2022/04/08 18:49:12;;;;;;;;;;;18.70;39.20;;;;;;8362788;28;19920;-52
2022/04/08 18:53:13;;;;;;;;;;;18.70;39.20;;;;;;8362649;28;19917;-50
2022/04/08 18:57:14;;;;;;;;;;;18.70;39.20;;;;;;8362678;28;20003;-50
2022/04/08 19:01:16;;;;;;;;;;;18.70;39.20;;;;;;8362833;28;19955;-52
2022/04/08 19:05:16;;;;;;;;;;;18.70;39.20;;;;;;8362453;28;19913;-52
2022/04/08 19:09:17;;;;;;;;;;;18.70;39.20;;;;;;8333558;28;19917;-50
2022/04/08 19:13:17;;;;;;;;;;;18.70;39.20;;;;;;8329538;28;20374;-54
2022/04/08 19:17:18;;;;;;;;;;;18.70;39.20;;;;;;8329105;28;20004;-51
2022/04/08 19:21:18;;;;;;;;;;;18.70;39.20;;;;;;8329607;28;19926;-52
2022/04/08 19:25:19;;;;;;;;;;;18.70;39.10;;;;;;8329377;28;19924;-53
2022/04/08 19:29:20;;;;;;;;;;;18.70;39.10;;;;;;8328950;28;19920;-49
2022/04/08 19:33:20;;;;;;;;;;;18.70;39.10;;;;;;8333666;28;19959;-50
2022/04/08 19:37:21;;;;;;;;;;;18.70;39.10;;;;;;8335302;28;19963;-51
2022/04/08 19:41:21;;;;;;;;;;;18.70;39.10;;;;;;8334512;28;19921;-51
2022/04/08 19:45:22;;;;;;;;;;;18.70;39.20;;;;;;8334817;28;19917;-50
2022/04/08 19:49:22;;;;;;;;;;;18.70;39.20;;;;;;8334779;28;19995;-51
2022/04/08 19:53:23;;;;;;;;;;;18.70;39.10;;;;;;8334366;28;19953;-51
2022/04/08 19:57:23;;;;;;;;;;;18.70;39.10;;;;;;8334843;28;19919;-49
2022/04/08 20:01:23;;;;;;;;;;;18.70;39.10;;;;;;8334150;28;19925;-49
2022/04/08 20:05:24;;;;;;;;;;;18.70;39.10;;;;;;8333848;28;20293;-50
2022/04/08 20:09:24;;;;;;;;;;;18.70;39.10;;;;;;8334446;28;19923;-50
2022/04/08 20:13:25;;;;;;;;;;;18.70;39.10;;;;;;8334360;28;19918;-50
2022/04/08 20:17:25;;;;;;;;;;;18.70;39.10;;;;;;8333449;28;19975;-52
2022/04/08 20:21:26;;;;;;;;;;;18.70;39.10;;;;;;8334064;28;20016;-53
2022/04/08 20:25:26;;;;;;;;;;;18.70;39.00;;;;;;8333502;28;19917;-51
2022/04/08 20:29:27;;;;;;;;;;;18.70;39.00;;;;;;8353429;28;20285;-53
2022/04/08 20:33:27;;;;;;;;;;;18.70;39.00;;;;;;8366957;28;19913;-51
2022/04/08 20:37:28;;;;;;;;;;;18.70;39.00;;;;;;8366133;28;19959;-50
2022/04/08 20:41:29;;;;;;;;;;;18.70;39.00;;;;;;8365503;28;20301;-49
2022/04/08 20:45:29;;;;;;;;;;;18.70;38.90;;;;;;8365336;28;19921;-52
2022/04/08 20:49:30;;;;;;;;;;;18.70;38.90;;;;;;8366027;28;19917;-51
2022/04/08 20:53:30;;;;;;;;;;;18.70;38.80;;;;;;8365501;28;20294;-51
2022/04/08 20:57:31;;;;;;;;;;;18.70;38.80;;;;;;8365925;28;19916;-49
2022/04/08 21:01:31;;;;;;;;;;;18.70;38.90;;;;;;8365352;28;20388;-50
2022/04/08 21:05:32;;;;;;;;;;;18.70;38.80;;;;;;8364951;28;20271;-50
2022/04/08 21:09:32;;;;;;;;;;;18.70;38.70;;;;;;8365300;28;19976;-50
2022/04/08 21:13:33;;;;;;;;;;;18.70;38.80;;;;;;8365254;28;19913;-51
2022/04/08 21:17:35;;;;;;;;;;;18.70;38.70;;;;;;8364468;28;19959;-53
2022/04/08 21:21:35;;;;;;;;;;;18.70;38.70;;;;;;8364847;28;20140;-50
2022/04/08 21:25:36;;;;;;;;;;;18.70;38.60;;;;;;8364878;28;20312;-50
2022/04/08 21:29:36;;;;;;;;;;;18.70;38.60;;;;;;8364150;28;19924;-49
2022/04/08 21:33:37;;;;;;;;;;;18.70;38.60;;;;;;8364939;28;19912;-53
2022/04/08 21:37:37;;;;;;;;;;;18.70;38.60;;;;;;8364177;28;20362;-51
2022/04/08 21:41:37;;;;;;;;;;;18.70;38.60;;;;;;8363704;28;20278;-50
2022/04/08 21:45:41;;;;;;;;;;;18.70;38.60;;;;;;8364027;28;19921;-51
2022/04/08 21:49:42;;;;;;;;;;;18.70;38.50;;;;;;8364254;28;20262;-54
2022/04/08 21:53:42;;;;;;;;;;;18.60;38.40;;;;;;8363532;28;19912;-53
2022/04/08 21:57:43;;;;;;;;;;;18.70;38.40;;;;;;8363116;28;20008;-53
2022/04/08 22:01:43;;;;;;;;;;;18.70;38.40;;;;;;8362540;28;19994;-53
2022/04/08 22:05:44;;;;;;;;;;;18.70;38.40;;;;;;8351285;28;19921;-53
2022/04/08 22:09:44;;;;;;;;;;;18.60;38.30;;;;;;8330063;28;19917;-53
2022/04/08 22:13:45;;;;;;;;;;;18.60;38.30;;;;;;8330730;28;19917;-51
2022/04/08 22:17:46;;;;;;;;;;;18.60;38.30;;;;;;8329757;28;19924;-52
2022/04/08 22:21:46;;;;;;;;;;;18.60;38.40;;;;;;8330108;28;19948;-51
2022/04/08 22:25:47;;;;;;;;;;;18.60;38.50;;;;;;8330239;28;20370;-51
2022/04/08 22:29:48;;;;;;;;;;;18.60;38.50;;;;;;8329774;28;20004;-51
2022/04/08 22:33:48;;;;;;;;;;;18.60;38.50;;;;;;8330234;28;19913;-51
2022/04/08 22:37:49;;;;;;;;;;;18.60;38.60;;;;;;8330101;28;20003;-52
2022/04/08 22:41:49;;;;;;;;;;;18.60;38.60;;;;;;8329355;28;19925;-52
2022/04/08 22:45:49;;;;;;;;;;;18.60;39.10;;;;;;8330185;28;19952;-50
2022/04/08 22:49:50;;;;;;;;;;;18.60;38.60;;;;;;8329865;28;19913;-48
2022/04/08 22:53:50;;;;;;;;;;;18.60;38.70;;;;;;8329500;28;19921;-52
2022/04/08 22:57:51;;;;;;;;;;;18.60;38.70;;;;;;8330004;28;20398;-50
2022/04/08 23:01:51;;;;;;;;;;;18.60;38.70;;;;;;8330172;28;19979;-47
2022/04/08 23:05:52;;;;;;;;;;;18.60;38.70;;;;;;8330525;28;20290;-50
2022/04/08 23:09:52;;;;;;;;;;;18.60;38.70;;;;;;8336353;28;19914;-50
2022/04/08 23:13:54;;;;;;;;;;;18.60;38.80;;;;;;8336589;28;19936;-49
2022/04/08 23:17:54;;;;;;;;;;;18.50;38.70;;;;;;8335570;28;19917;-49